KCCA/CCA METAR and TAF weather

Enter ICAO airport designator
Station Type Date Time Source
KCCA METAR 2024/06/14 01:35 UTC NOAA

KCCA 140135Z AUTO 00000KT 10SM CLR 25/22 A2992 RMK AO2


Station Type Date Time Source
KCCA Decoded METAR 2024/06/14 01:35 UTC NOAA

Station name not available
Jun 13, 2024 - 09:35 PM EDT / 2024.06.14 0135 UTC
Wind: Calm:0
Visibility: 10 mile(s):0
Sky conditions: clear
Temperature: 77 F (25 C)
Dew Point: 71 F (22 C)
Relative Humidity: 83%
Pressure (altimeter): 29.92 in. Hg (1013 hPa)
ob: KCCA 140135Z AUTO 00000KT 10SM CLR 25/22 A2992 RMK AO2
cycle: 1

Station Type Date Time Source
KCCA TAF UTC NOAA

Error!

Example: see airport list